Time;durP1;ratioP1;P1;durP2;ratioP2;P2;SDS_P1;SDS_P2;PMS_P1;PMS_P2;Temp;Humidity;BMP_temperature;BMP_pressure;BME280_temperature;BME280_humidity;BME280_pressure;Samples;Min_cycle;Max_cycle;Signal;HPM_P1;HPM_P2
2021/07/15 00:00:33;;;;;;;27.97;15.10;;;18.00;99.90;;;;;;4975014;28;20449;-88
2021/07/15 00:03:02;;;;;;;27.93;16.80;;;17.10;99.90;;;;;;4975039;28;20435;-89
2021/07/15 00:05:28;;;;;;;23.77;14.23;;;19.80;99.90;;;;;;4977153;28;20445;-88
2021/07/15 00:07:54;;;;;;;16.20;12.73;;;20.10;99.90;;;;;;4977494;28;20418;-88
2021/07/15 00:10:26;;;;;;;17.87;12.87;;;15.20;99.90;;;;;;4977612;28;20512;-89
2021/07/15 00:12:52;;;;;;;16.30;12.40;;;19.10;99.90;;;;;;5009181;28;20209;-89
2021/07/15 00:15:21;;;;;;;21.87;14.00;;;19.70;99.90;;;;;;4969649;28;20436;-89
2021/07/15 00:17:47;;;;;;;21.50;14.63;;;17.50;99.90;;;;;;4983958;28;20414;-89
2021/07/15 00:20:15;;;;;;;25.07;14.50;;;19.10;99.90;;;;;;4965869;28;20449;-90
2021/07/15 00:22:42;;;;;;;22.57;15.80;;;19.20;99.90;;;;;;4966095;28;20924;-90
2021/07/15 00:25:10;;;;;;;32.40;18.80;;;19.30;99.90;;;;;;4984408;28;20799;-89
2021/07/15 00:27:40;;;;;;;32.57;19.50;;;17.10;99.90;;;;;;4963120;28;20479;-89
2021/07/15 00:30:07;;;;;;;32.80;17.70;;;17.80;99.90;;;;;;4962836;28;20429;-89
2021/07/15 00:32:33;;;;;;;33.67;17.40;;;17.10;99.90;;;;;;4962061;28;20461;-89
2021/07/15 00:34:59;;;;;;;27.17;16.80;;;17.20;99.90;;;;;;4961135;28;20433;-89
2021/07/15 00:37:25;;;;;;;38.40;20.10;;;18.30;99.90;;;;;;4961282;28;20524;-90
2021/07/15 00:39:51;;;;;;;33.30;18.30;;;15.00;99.90;;;;;;4978446;28;20936;-90
2021/07/15 00:42:16;;;;;;;28.73;17.10;;;18.50;99.90;;;;;;4979284;28;20180;-91
2021/07/15 00:44:42;;;;;;;34.07;17.57;;;18.40;99.90;;;;;;4993437;28;20210;-89
2021/07/15 00:47:08;;;;;;;34.20;18.50;;;21.30;99.90;;;;;;4962062;28;20798;-89
2021/07/15 00:49:33;;;;;;;27.53;16.50;;;18.40;99.90;;;;;;4979235;28;20170;-89
2021/07/15 00:51:59;;;;;;;20.37;12.73;;;18.30;99.90;;;;;;4980572;28;20190;-89
2021/07/15 00:54:25;;;;;;;18.47;12.90;;;19.50;99.90;;;;;;4961065;28;20210;-90
2021/07/15 00:56:51;;;;;;;25.47;14.43;;;18.20;99.90;;;;;;4978615;28;20410;-91
2021/07/15 00:59:20;;;;;;;27.20;14.50;;;18.30;99.90;;;;;;4961026;28;20177;-89
2021/07/15 01:01:47;;;;;;;19.43;14.00;;;18.50;99.90;;;;;;4961566;28;20170;-90
2021/07/15 01:04:12;;;;;;;19.07;14.07;;;18.10;99.90;;;;;;4981034;28;20500;-89
2021/07/15 01:06:38;;;;;;;15.37;13.30;;;18.40;99.90;;;;;;4982462;28;20440;-89
2021/07/15 01:09:04;;;;;;;16.77;14.10;;;16.60;99.90;;;;;;4997001;28;20233;-90
2021/07/15 01:11:41;;;;;;;23.63;14.60;;;20.20;99.90;;;;;;4971795;28;20170;-90
2021/07/15 01:14:14;;;;;;;18.90;12.70;;;20.60;99.90;;;;;;4998333;28;20467;-88
2021/07/15 01:16:52;;;;;;;30.20;16.87;;;15.30;99.90;;;;;;4998396;28;20382;-89
2021/07/15 01:19:49;;;;;;;22.53;13.80;;;20.60;99.90;;;;;;4981226;28;20452;-89
2021/07/15 01:22:36;;;;;;;26.17;16.27;;;17.30;99.90;;;;;;5005448;28;20427;-90
2021/07/15 01:25:45;;;;;;;26.60;16.30;;;17.20;99.90;;;;;;4981394;28;20876;-90
2021/07/15 01:28:20;;;;;;;49.00;16.40;;;17.60;99.90;;;;;;4962196;28;20429;-89
2021/07/15 01:30:50;;;;;;;23.93;14.97;;;20.00;99.90;;;;;;4961019;28;20791;-89
2021/07/15 01:33:18;;;;;;;25.27;14.47;;;18.80;99.90;;;;;;4997894;28;20527;-89
2021/07/15 01:35:59;;;;;;;24.73;14.93;;;19.20;99.90;;;;;;4980478;28;20425;-89
2021/07/15 01:38:47;;;;;;;29.07;14.30;;;17.90;99.90;;;;;;4981404;28;20425;-89
2021/07/15 01:41:20;;;;;;;32.33;16.60;;;18.80;99.90;;;;;;4992392;28;20409;-90
2021/07/15 01:43:56;;;;;;;38.03;16.73;;;19.10;99.90;;;;;;4963667;28;20421;-89
2021/07/15 01:46:22;;;;;;;34.33;18.97;;;17.10;99.90;;;;;;4960751;28;20427;-89
2021/07/15 01:48:48;;;;;;;33.70;17.43;;;16.70;99.90;;;;;;4992923;28;20464;-89
2021/07/15 01:51:15;;;;;;;35.03;18.07;;;16.10;99.90;;;;;;4960932;28;20425;-88
2021/07/15 01:53:42;;;;;;;32.57;16.67;;;15.20;99.90;;;;;;4976452;28;20453;-88
2021/07/15 01:56:10;;;;;;;28.27;16.90;;;18.90;99.90;;;;;;4977039;28;20414;-89
2021/07/15 01:58:37;;;;;;;29.00;16.90;;;20.00;99.90;;;;;;4960009;28;20435;-89
2021/07/15 02:01:05;;;;;;;31.20;16.10;;;17.30;99.90;;;;;;4959861;28;20508;-89
2021/07/15 02:03:34;;;;;;;32.33;16.73;;;15.60;99.90;;;;;;4976020;28;20763;-89
2021/07/15 02:06:01;;;;;;;37.00;16.40;;;18.20;99.90;;;;;;4992973;28;20453;-90
2021/07/15 02:08:27;;;;;;;38.37;19.43;;;16.00;99.90;;;;;;4959290;28;20429;-90
2021/07/15 02:10:54;;;;;;;32.57;16.40;;;19.60;99.90;;;;;;4960406;28;20932;-89
2021/07/15 02:13:21;;;;;;;34.53;15.27;;;15.70;99.90;;;;;;4976810;28;20448;-88
2021/07/15 02:15:48;;;;;;;36.07;14.73;;;18.60;99.90;;;;;;4959748;28;20528;-90
2021/07/15 02:18:16;;;;;;;30.33;15.10;;;17.30;99.90;;;;;;4961981;28;20859;-90
2021/07/15 02:20:44;;;;;;;31.27;13.07;;;17.30;99.90;;;;;;4961446;28;20422;-90
2021/07/15 02:23:11;;;;;;;26.77;14.13;;;15.70;99.90;;;;;;4977923;28;20420;-88
2021/07/15 02:25:38;;;;;;;28.73;14.23;;;16.50;99.90;;;;;;4993705;28;20437;-89
2021/07/15 02:28:07;;;;;;;29.27;13.70;;;16.20;99.90;;;;;;4993598;28;20413;-89
2021/07/15 02:30:32;;;;;;;23.63;13.40;;;16.60;99.90;;;;;;5014791;28;20417;-89
2021/07/15 02:33:02;;;;;;;26.43;13.67;;;15.30;99.90;;;;;;4988516;28;20496;-89
2021/07/15 02:35:35;;;;;;;30.23;12.67;;;21.20;99.90;;;;;;4982359;28;20181;-89
2021/07/15 02:38:04;;;;;;;33.43;14.13;;;17.10;99.90;;;;;;4981819;28;20416;-90
2021/07/15 02:40:30;;;;;;;30.90;13.40;;;19.40;99.90;;;;;;4965546;28;20444;-90
2021/07/15 02:42:57;;;;;;;22.30;11.03;;;17.20;99.90;;;;;;4972937;28;20421;-90
2021/07/15 02:45:23;;;;;;;36.43;16.07;;;16.90;99.90;;;;;;4987174;28;20712;-90
2021/07/15 02:47:49;;;;;;;39.40;17.63;;;17.40;99.90;;;;;;4984085;28;20417;-90
2021/07/15 02:50:18;;;;;;;30.90;16.00;;;19.80;99.90;;;;;;4965074;28;20176;-90
2021/07/15 02:52:43;;;;;;;29.03;15.93;;;20.10;99.90;;;;;;4964613;28;20424;-90
2021/07/15 02:55:11;;;;;;;24.53;13.77;;;15.40;99.90;;;;;;4963763;28;20435;-90
2021/07/15 02:57:56;;;;;;;22.53;13.93;;;17.30;99.90;;;;;;4964953;28;20197;-90
2021/07/15 03:00:24;;;;;;;29.03;14.90;;;18.20;99.90;;;;;;4983213;28;20427;-90
2021/07/15 03:03:36;;;;;;;20.83;13.50;;;20.00;99.90;;;;;;4966377;28;20437;-90
2021/07/15 03:06:17;;;;;;;25.53;13.43;;;17.40;99.90;;;;;;4964229;28;20963;-89
2021/07/15 03:09:02;;;;;;;19.27;11.83;;;17.70;99.90;;;;;;4964428;28;20425;-89
2021/07/15 03:11:35;;;;;;;17.50;11.67;;;21.70;99.90;;;;;;4969208;28;20669;-90
2021/07/15 03:14:02;;;;;;;20.30;11.60;;;18.20;99.90;;;;;;4985104;28;20960;-90
2021/07/15 03:16:29;;;;;;;18.50;11.47;;;20.40;99.90;;;;;;4968085;28;20440;-90
2021/07/15 03:18:57;;;;;;;14.07;10.77;;;17.40;99.90;;;;;;4963796;28;20455;-89
2021/07/15 03:21:24;;;;;;;16.57;11.57;;;20.20;99.90;;;;;;4963707;28;20475;-89
2021/07/15 03:23:54;;;;;;;14.70;10.50;;;18.70;99.90;;;;;;4984311;28;20425;-90
2021/07/15 03:26:21;;;;;;;15.50;11.40;;;20.80;99.90;;;;;;4967681;28;20422;-90
2021/07/15 03:28:51;;;;;;;17.17;11.37;;;15.20;99.90;;;;;;4972061;28;20425;-87
2021/07/15 03:31:17;;;;;;;15.40;11.37;;;20.30;99.90;;;;;;4984661;28;20410;-91
2021/07/15 03:33:44;;;;;;;17.60;11.53;;;19.50;99.90;;;;;;4964484;28;20489;-90
2021/07/15 03:36:11;;;;;;;14.70;9.30;;;17.20;99.90;;;;;;4965502;28;20520;-89
2021/07/15 03:38:41;;;;;;;18.00;11.10;;;17.30;99.90;;;;;;4997254;28;20422;-90
2021/07/15 03:41:09;;;;;;;14.47;10.97;;;17.30;99.90;;;;;;4963728;28;20421;-90
2021/07/15 03:43:36;;;;;;;21.30;11.50;;;17.20;99.90;;;;;;4964025;28;20917;-89
2021/07/15 03:46:02;;;;;;;14.70;10.40;;;17.90;99.90;;;;;;4964368;28;20909;-90
2021/07/15 03:48:29;;;;;;;12.83;10.93;;;19.10;99.90;;;;;;4981214;28;20428;-90
2021/07/15 03:51:00;;;;;;;8.80;7.90;;;17.30;99.90;;;;;;4964186;28;20566;-90
2021/07/15 03:53:27;;;;;;;7.13;6.80;;;15.50;99.90;;;;;;4964198;28;21179;-90
2021/07/15 03:55:56;;;;;;;6.00;5.63;;;19.50;99.90;;;;;;4981114;28;20453;-89
2021/07/15 03:58:22;;;;;;;7.37;6.53;;;17.50;99.90;;;;;;4980387;28;20417;-90
2021/07/15 04:00:50;;;;;;;6.67;6.20;;;17.50;99.90;;;;;;4965035;28;20424;-90
2021/07/15 04:03:20;;;;;;;5.53;5.30;;;19.60;99.90;;;;;;4980528;28;20405;-88
2021/07/15 04:05:46;;;;;;;5.90;5.50;;;19.40;99.90;;;;;;4995372;28;20464;-89
2021/07/15 04:08:15;;;;;;;7.73;7.03;;;17.50;99.90;;;;;;4963552;28;20432;-89
2021/07/15 04:10:43;;;;;;;8.33;7.73;;;20.30;99.90;;;;;;4963865;28;20413;-89
2021/07/15 04:13:10;;;;;;;9.97;8.97;;;19.20;99.90;;;;;;4983985;28;20955;-89
2021/07/15 04:15:54;;;;;;;11.80;9.20;;;17.60;99.90;;;;;;4964672;28;20473;-89
2021/07/15 04:18:25;;;;;;;9.43;8.43;;;17.50;99.90;;;;;;4997896;28;20444;-90
2021/07/15 04:20:56;;;;;;;12.20;8.40;;;21.00;99.90;;;;;;4965641;28;20488;-89
2021/07/15 04:23:23;;;;;;;15.87;9.70;;;17.50;99.90;;;;;;4996228;28;20476;-89
2021/07/15 04:25:52;;;;;;;15.50;14.00;;;17.40;99.90;;;;;;4964556;28;20426;-89
2021/07/15 04:28:18;;;;;;;11.23;10.13;;;18.80;99.90;;;;;;4966210;28;20520;-90
2021/07/15 04:30:47;;;;;;;10.90;9.90;;;17.50;99.90;;;;;;4984944;28;20963;-89
2021/07/15 04:33:13;;;;;;;9.30;8.47;;;20.90;99.90;;;;;;4983350;28;20484;-89
2021/07/15 04:35:40;;;;;;;10.07;9.10;;;20.70;99.90;;;;;;4983541;28;20402;-88
2021/07/15 04:38:07;;;;;;;12.20;8.33;;;19.70;99.90;;;;;;4965298;28;20537;-89
2021/07/15 04:40:34;;;;;;;9.90;9.00;;;17.60;99.90;;;;;;4982757;28;20445;-90
2021/07/15 04:43:07;;;;;;;12.63;9.50;;;19.40;99.90;;;;;;4964659;28;20777;-90
2021/07/15 04:45:40;;;;;;;12.03;8.90;;;20.40;99.90;;;;;;4982957;28;20472;-90
2021/07/15 04:48:12;;;;;;;13.93;9.57;;;19.30;99.90;;;;;;4982474;28;20869;-89
2021/07/15 04:50:39;;;;;;;12.40;8.50;;;17.70;99.90;;;;;;4964814;28;20433;-89
2021/07/15 04:53:13;;;;;;;8.37;7.60;;;17.90;99.90;;;;;;4981552;28;20457;-89
2021/07/15 04:55:41;;;;;;;7.07;6.63;;;17.90;99.90;;;;;;4981338;28;20421;-90
2021/07/15 04:58:07;;;;;;;7.77;7.27;;;21.80;99.90;;;;;;4981435;28;20414;-90
2021/07/15 05:00:33;;;;;;;6.70;6.20;;;20.80;99.90;;;;;;4980100;28;20429;-89
2021/07/15 05:03:04;;;;;;;7.10;6.60;;;21.10;99.90;;;;;;4979602;28;20414;-90
2021/07/15 05:05:30;;;;;;;6.33;5.77;;;19.50;99.90;;;;;;4978439;28;20413;-89
2021/07/15 05:07:55;;;;;;;6.20;5.90;;;20.10;99.90;;;;;;4963072;28;20573;-92
2021/07/15 05:10:21;;;;;;;6.37;6.07;;;18.00;99.90;;;;;;4979568;28;20170;-88
2021/07/15 05:12:46;;;;;;;5.00;4.70;;;18.70;99.90;;;;;;4962526;28;20209;-89
2021/07/15 05:15:12;;;;;;;8.83;5.63;;;20.90;99.90;;;;;;4962793;28;20184;-91
2021/07/15 05:17:38;;;;;;;4.27;4.17;;;22.20;99.90;;;;;;4637869;28;10000070;-89
2021/07/15 05:20:07;;;;;;;4.60;4.50;;;22.30;99.90;;;;;;4998943;28;20177;-90
2021/07/15 05:22:34;;;;;;;4.90;4.47;;;20.90;96.20;;;;;;5001474;28;20436;-89
2021/07/15 05:24:59;;;;;;;4.97;4.60;;;22.30;96.60;;;;;;5000503;28;20504;-90
2021/07/15 05:27:25;;;;;;;5.13;4.93;;;22.60;97.20;;;;;;5006106;28;20772;-90
2021/07/15 05:29:51;;;;;;;3.83;3.63;;;23.70;99.90;;;;;;4989476;28;20177;-91
2021/07/15 05:32:17;;;;;;;4.10;3.70;;;22.50;99.90;;;;;;4987788;28;20460;-90
2021/07/15 05:34:50;;;;;;;3.20;3.00;;;23.00;99.90;;;;;;4987507;28;20483;-91
2021/07/15 05:37:16;;;;;;;2.93;2.90;;;21.70;97.00;;;;;;4986722;28;20417;-89
2021/07/15 05:39:44;;;;;;;2.93;2.83;;;23.30;99.90;;;;;;5006612;28;20452;-89
2021/07/15 05:42:12;;;;;;;3.90;3.60;;;25.20;99.90;;;;;;5006693;28;20197;-91
2021/07/15 05:44:39;;;;;;;3.53;3.33;;;20.90;99.90;;;;;;5006054;28;20424;-88
2021/07/15 05:47:07;;;;;;;3.60;3.50;;;20.60;99.90;;;;;;5008613;28;20452;-90
2021/07/15 05:49:37;;;;;;;2.87;2.80;;;23.30;99.90;;;;;;4989421;28;20432;-91
2021/07/15 05:52:11;;;;;;;3.10;3.00;;;19.70;99.40;;;;;;5006271;28;20470;-90
2021/07/15 05:54:36;;;;;;;3.77;3.50;;;18.60;99.90;;;;;;4989122;28;20486;-89
2021/07/15 05:57:05;;;;;;;3.10;3.10;;;22.60;99.90;;;;;;5003240;28;20412;-89
2021/07/15 05:59:32;;;;;;;3.03;2.80;;;19.20;99.90;;;;;;5003594;28;20244;-88
2021/07/15 06:02:04;;;;;;;2.70;2.50;;;19.70;99.90;;;;;;4990641;28;20461;-88
2021/07/15 06:04:31;;;;;;;2.23;2.23;;;22.30;99.90;;;;;;4996725;28;20447;-87
2021/07/15 06:06:58;;;;;;;2.67;2.60;;;19.20;99.90;;;;;;5011417;28;20413;-89
2021/07/15 06:09:28;;;;;;;5.27;2.97;;;19.40;99.90;;;;;;4972390;28;20960;-88
2021/07/15 06:11:53;;;;;;;2.27;2.27;;;19.50;99.90;;;;;;4967412;28;20196;-89
2021/07/15 06:14:22;;;;;;;3.07;3.07;;;19.50;99.90;;;;;;4966603;28;20557;-88
2021/07/15 06:16:47;;;;;;;5.03;3.17;;;20.30;99.90;;;;;;4983437;28;20186;-90
2021/07/15 06:19:13;;;;;;;3.27;3.17;;;19.50;99.70;;;;;;4965825;28;20507;-90
2021/07/15 06:21:39;;;;;;;2.60;2.60;;;18.00;98.90;;;;;;4999974;28;20268;-89
2021/07/15 06:24:05;;;;;;;2.90;2.70;;;19.40;99.10;;;;;;5001984;28;20986;-89
2021/07/15 06:26:31;;;;;;;2.70;2.60;;;19.80;99.90;;;;;;4985899;28;20195;-89
2021/07/15 06:29:05;;;;;;;2.90;2.80;;;22.50;99.90;;;;;;5003618;28;20436;-89
2021/07/15 06:31:32;;;;;;;3.23;3.13;;;21.20;99.90;;;;;;5003818;28;20211;-90
2021/07/15 06:33:59;;;;;;;4.10;3.90;;;21.50;99.90;;;;;;4999347;28;20499;-86
2021/07/15 06:36:26;;;;;;;4.03;3.67;;;22.20;99.90;;;;;;5003299;28;20476;-88
2021/07/15 06:38:52;;;;;;;4.03;3.73;;;19.60;99.90;;;;;;5001229;28;20489;-88
2021/07/15 06:41:17;;;;;;;3.10;3.10;;;20.00;99.90;;;;;;5003098;28;20421;-90
2021/07/15 06:43:46;;;;;;;2.97;2.80;;;22.40;99.90;;;;;;5004371;28;20181;-87
2021/07/15 06:46:12;;;;;;;2.83;2.60;;;20.30;99.90;;;;;;4990575;28;20189;-90
2021/07/15 06:48:38;;;;;;;3.50;3.30;;;19.80;99.90;;;;;;5013416;28;20426;-91
2021/07/15 06:51:09;;;;;;;3.10;3.00;;;20.60;99.90;;;;;;4992339;28;20245;-90
2021/07/15 06:53:35;;;;;;;2.43;2.37;;;19.80;99.10;;;;;;4988946;28;21045;-87
2021/07/15 06:56:01;;;;;;;2.70;2.70;;;21.80;99.90;;;;;;4992797;28;20429;-89
2021/07/15 06:58:28;;;;;;;3.40;3.30;;;18.50;99.90;;;;;;4984307;28;20236;-89
2021/07/15 07:00:57;;;;;;;3.30;3.20;;;20.00;99.90;;;;;;4986946;28;20441;-88
2021/07/15 07:03:24;;;;;;;2.90;2.80;;;22.20;99.90;;;;;;5001356;28;20544;-89
2021/07/15 07:05:51;;;;;;;2.77;2.57;;;20.60;99.90;;;;;;4982908;28;20435;-88
2021/07/15 07:08:17;;;;;;;2.30;2.30;;;20.50;99.90;;;;;;4983780;28;20447;-88
2021/07/15 07:10:42;;;;;;;3.33;3.00;;;20.50;99.90;;;;;;4998743;28;20413;-89
2021/07/15 07:13:08;;;;;;;2.67;2.67;;;19.80;99.90;;;;;;4997286;28;20247;-88
2021/07/15 07:15:34;;;;;;;2.93;2.83;;;19.90;99.90;;;;;;4638359;28;9999661;-88
2021/07/15 07:17:59;;;;;;;2.00;2.00;;;22.30;99.90;;;;;;4984125;28;20192;-89
2021/07/15 07:20:25;;;;;;;2.43;2.10;;;20.20;98.00;;;;;;5001102;28;20181;-89
2021/07/15 07:22:51;;;;;;;2.27;2.10;;;22.70;97.80;;;;;;5014289;28;20227;-89
2021/07/15 07:25:17;;;;;;;2.47;2.40;;;22.80;96.20;;;;;;5000470;28;20220;-89
2021/07/15 07:27:44;;;;;;;2.37;2.37;;;23.90;96.60;;;;;;5015288;28;20427;-88
2021/07/15 07:30:12;;;;;;;2.50;2.37;;;20.30;93.20;;;;;;5001508;28;20431;-90
2021/07/15 07:32:38;;;;;;;2.67;2.47;;;21.30;93.00;;;;;;5000139;28;20514;-91
2021/07/15 07:35:07;;;;;;;2.33;2.23;;;23.40;95.90;;;;;;4982333;28;20416;-89
2021/07/15 07:37:33;;;;;;;3.70;2.47;;;21.60;90.80;;;;;;4984383;28;20173;-89
2021/07/15 07:40:00;;;;;;;2.13;2.13;;;24.20;93.30;;;;;;5006181;28;20955;-89
2021/07/15 07:42:27;;;;;;;2.23;2.03;;;23.60;89.00;;;;;;4984951;28;20420;-89
2021/07/15 07:44:53;;;;;;;2.30;2.20;;;26.30;92.40;;;;;;4984977;28;20424;-89
2021/07/15 07:47:18;;;;;;;2.43;2.33;;;25.20;87.10;;;;;;5002366;28;20424;-90
2021/07/15 07:49:44;;;;;;;2.70;2.50;;;22.10;80.10;;;;;;5001917;28;20261;-88
2021/07/15 07:52:10;;;;;;;3.00;2.13;;;;;;;;;;5000904;28;20637;-89
2021/07/15 07:54:36;;;;;;;2.50;1.80;;;23.90;73.40;;;;;;5000229;28;20212;-87
2021/07/15 07:57:03;;;;;;;2.30;2.30;;;24.50;70.40;;;;;;5001343;28;20416;-91
2021/07/15 07:59:28;;;;;;;1.90;1.90;;;24.80;66.90;;;;;;5001491;28;20239;-90
2021/07/15 08:01:54;;;;;;;2.43;2.33;;;27.90;67.90;;;;;;4984307;28;20420;-87
2021/07/15 08:04:20;;;;;;;2.07;1.97;;;25.60;60.70;;;;;;4998569;28;20170;-89
2021/07/15 08:06:48;;;;;;;3.07;3.07;;;;;;;;;;4980455;28;20227;-88
2021/07/15 08:09:22;;;;;;;1.57;1.57;;;27.90;60.40;;;;;;4996503;28;20578;-89
2021/07/15 08:11:49;;;;;;;1.70;1.70;;;28.20;54.10;;;;;;4997267;28;20511;-89
2021/07/15 08:14:15;;;;;;;2.37;1.30;;;29.70;53.10;;;;;;4998110;28;20482;-91
2021/07/15 08:16:41;;;;;;;1.30;1.20;;;29.60;50.70;;;;;;4987090;28;20471;-90
2021/07/15 08:19:07;;;;;;;2.00;2.00;;;29.40;49.60;;;;;;4984853;28;20417;-90
2021/07/15 08:21:34;;;;;;;1.20;1.20;;;29.80;50.10;;;;;;4983346;28;20537;-91
2021/07/15 08:23:59;;;;;;;1.20;1.20;;;31.70;49.00;;;;;;4998501;28;20625;-90
2021/07/15 08:26:25;;;;;;;1.67;1.67;;;30.40;48.00;;;;;;4978232;28;20432;-90
2021/07/15 08:28:51;;;;;;;1.23;1.13;;;30.70;48.10;;;;;;4980869;28;20200;-91
2021/07/15 08:31:16;;;;;;;1.50;1.40;;;31.30;47.90;;;;;;4996845;28;20177;-91
2021/07/15 08:33:42;;;;;;;1.30;1.30;;;32.30;45.70;;;;;;4998084;28;20768;-90
2021/07/15 08:36:08;;;;;;;1.40;1.30;;;32.10;44.70;;;;;;4981680;28;20169;-92
2021/07/15 08:38:34;;;;;;;2.30;0.97;;;32.60;44.30;;;;;;4997615;28;20496;-90
2021/07/15 08:41:00;;;;;;;3.87;1.10;;;32.70;44.40;;;;;;4998588;28;20849;-91
2021/07/15 08:43:26;;;;;;;4.33;1.07;;;33.40;44.00;;;;;;4988193;28;20182;-90
2021/07/15 08:45:52;;;;;;;3.83;2.20;;;33.60;43.00;;;;;;4999619;28;20551;-91
2021/07/15 08:48:22;;;;;;;0.87;0.50;;;34.00;43.30;;;;;;5000493;28;20983;-89
2021/07/15 08:50:50;;;;;;;2.63;0.73;;;34.20;41.60;;;;;;5000841;28;20412;-91
2021/07/15 08:53:18;;;;;;;1.90;0.80;;;33.90;42.30;;;;;;4999462;28;21146;-89
2021/07/15 08:58:17;;;;;;;1.17;1.17;;;30.70;43.90;;;;;;5002347;28;20421;-90
2021/07/15 09:00:44;;;;;;;1.43;1.30;;;31.10;44.30;;;;;;4999911;28;20417;-91
2021/07/15 09:03:11;;;;;;;1.70;1.60;;;31.30;46.50;;;;;;4984029;28;20413;-90
2021/07/15 09:05:37;;;;;;;1.57;1.57;;;30.20;47.90;;;;;;5002892;28;20508;-89
2021/07/15 09:08:05;;;;;;;1.53;1.53;;;30.40;48.60;;;;;;4981684;28;20424;-88
2021/07/15 09:10:30;;;;;;;1.20;1.20;;;28.50;48.40;;;;;;4983874;28;20428;-89
2021/07/15 09:12:57;;;;;;;1.30;1.30;;;28.80;49.30;;;;;;5002177;28;20427;-91
2021/07/15 09:15:25;;;;;;;1.60;1.50;;;29.90;48.50;;;;;;5000258;28;20169;-89
